Crescent Valley, Nevada
Current Conditions -  °F | °C
As of 6:56 PM on Saturday 22 Nov 2014 (Local Time) from KEKO Reporting Station
Broken Clouds Broken Clouds  
Wind Chill: -4°   Ceiling: 4500
Heat Index:   Visibility: 9mi
Dew Point:   Wind: 16mph
Humidity: 89%   Direction: 250°WSW
Pressure: 30"   Gusts: 23mph
Location:  40.42°N, 116.58°W
Report Text: KEKO 230256Z AUTO 25014G20KT 9SM BKN045 BKN070 02/00 A3000 RMK AO2 UPE01RAB01E06SNB06E26B45E54 SLP163 P0005 60008 T00170000 53022
Loading
Personal Weather Stations






























Interactive Weather Map New forecast layout! Learn more

10-Day Weather Forecast

Advertisements
Track Severe Weather on mobile